createdAt,value
2022-08-22T00:00:22.575Z,16.80
2022-08-22T00:02:52.977Z,8.98
2022-08-22T00:06:07.919Z,13.88
2022-08-22T00:08:47.338Z,12.80
2022-08-22T00:11:17.806Z,13.93
2022-08-22T00:14:07.933Z,11.57
2022-08-22T00:16:46.533Z,11.48
2022-08-22T00:19:17.751Z,13.32
2022-08-22T00:22:05.351Z,10.45
2022-08-22T00:24:52.738Z,13.55
2022-08-22T00:27:23.547Z,10.30
2022-08-22T00:29:57.236Z,12.13
2022-08-22T00:32:29.991Z,11.02
2022-08-22T00:35:29.937Z,13.85
2022-08-22T00:38:02.819Z,11.88
2022-08-22T00:40:34.372Z,8.23
2022-08-22T00:43:26.398Z,7.38
2022-08-22T00:46:18.562Z,12.38
2022-08-22T00:49:21.191Z,10.75
2022-08-22T00:52:11.130Z,8.82
2022-08-22T00:54:47.416Z,9.23
2022-08-22T00:57:27.566Z,8.55
2022-08-22T01:00:00.971Z,7.63
2022-08-22T01:03:15.130Z,6.45
2022-08-22T01:05:51.435Z,11.60
2022-08-22T01:08:33.844Z,8.93
2022-08-22T01:11:04.292Z,11.02
2022-08-22T01:13:50.208Z,9.55
2022-08-22T01:16:36.044Z,10.38
2022-08-22T01:19:29.163Z,8.32
2022-08-22T01:22:30.210Z,7.45
2022-08-22T01:25:25.866Z,7.43
2022-08-22T01:28:15.989Z,8.32
2022-08-22T01:31:02.384Z,10.95
2022-08-22T01:33:48.490Z,7.68
2022-08-22T01:36:30.601Z,8.48
2022-08-22T01:39:21.082Z,10.88
2022-08-22T01:42:10.908Z,10.73
2022-08-22T01:44:47.047Z,7.45
2022-08-22T01:47:22.911Z,8.82
2022-08-22T01:50:02.684Z,10.18
2022-08-22T01:52:50.140Z,10.85
2022-08-22T01:56:02.208Z,7.78
2022-08-22T01:58:33.677Z,13.00
2022-08-22T02:01:23.860Z,9.05
2022-08-22T02:03:51.365Z,10.85
2022-08-22T02:06:48.178Z,9.40
2022-08-22T02:09:34.502Z,9.05
2022-08-22T02:12:22.278Z,7.82
2022-08-22T02:15:21.488Z,9.57
2022-08-22T02:18:01.287Z,10.10
2022-08-22T02:20:52.883Z,10.63
2022-08-22T02:23:56.055Z,8.77
2022-08-22T02:26:47.016Z,10.48
2022-08-22T02:29:18.920Z,10.13
2022-08-22T02:31:55.321Z,11.90
2022-08-22T02:34:46.933Z,8.73
2022-08-22T02:37:23.878Z,9.63
2022-08-22T02:40:00.896Z,10.90
2022-08-22T02:42:42.243Z,14.18
2022-08-22T02:45:27.020Z,9.18
2022-08-22T02:50:59.076Z,11.27
2022-08-22T02:53:55.096Z,9.20
2022-08-22T02:56:35.898Z,8.00
2022-08-22T02:59:57.307Z,11.95
2022-08-22T03:02:56.895Z,10.02
2022-08-22T03:05:40.803Z,11.20
2022-08-22T03:08:17.370Z,8.07
2022-08-22T03:11:10.698Z,11.80
2022-08-22T03:13:59.012Z,9.23
2022-08-22T03:16:47.672Z,8.35
2022-08-22T03:19:31.893Z,8.30
2022-08-22T03:22:13.556Z,7.60
2022-08-22T03:25:00.004Z,9.38
2022-08-22T03:27:50.141Z,8.38
2022-08-22T03:30:20.043Z,9.57
2022-08-22T03:32:59.098Z,8.18
2022-08-22T03:35:32.374Z,8.55
2022-08-22T03:38:14.789Z,9.50
2022-08-22T03:41:24.144Z,8.73
2022-08-22T03:44:03.707Z,8.57
2022-08-22T03:46:49.850Z,8.27
2022-08-22T03:49:35.803Z,8.82
2022-08-22T03:52:27.450Z,8.32
2022-08-22T03:55:05.898Z,20.05
2022-08-22T03:57:45.354Z,12.52
2022-08-22T04:00:18.681Z,10.43
2022-08-22T04:02:52.128Z,10.02
2022-08-22T04:05:34.507Z,9.88
2022-08-22T04:08:04.739Z,14.90
2022-08-22T04:10:57.070Z,12.50
2022-08-22T04:13:33.595Z,9.93
2022-08-22T04:16:07.791Z,10.27
2022-08-22T04:19:04.190Z,8.90
2022-08-22T04:22:16.212Z,10.00
2022-08-22T04:25:08.420Z,11.93
2022-08-22T04:28:02.018Z,9.52
2022-08-22T04:30:53.961Z,11.18
2022-08-22T04:33:33.747Z,13.52
2022-08-22T04:36:13.664Z,12.70
2022-08-22T04:38:44.748Z,9.38
2022-08-22T04:41:13.434Z,11.88
2022-08-22T04:43:53.951Z,14.32
2022-08-22T04:46:39.427Z,11.80
2022-08-22T04:49:17.047Z,15.85
2022-08-22T04:51:48.116Z,14.07
2022-08-22T04:54:23.682Z,14.13
2022-08-22T04:57:19.466Z,10.57
2022-08-22T04:59:46.932Z,13.02
2022-08-22T05:02:21.515Z,11.23
2022-08-22T05:04:52.061Z,11.48
2022-08-22T05:07:35.854Z,10.48
2022-08-22T05:10:12.743Z,23.90
2022-08-22T05:12:41.301Z,17.58
2022-08-22T05:15:15.987Z,17.23
2022-08-22T05:17:51.724Z,11.23
2022-08-22T05:20:22.812Z,11.50
2022-08-22T05:22:52.898Z,11.85
2022-08-22T05:25:22.583Z,13.52
2022-08-22T05:27:56.339Z,12.63
2022-08-22T05:30:25.661Z,11.95
2022-08-22T05:33:16.346Z,14.00
2022-08-22T05:35:57.706Z,10.80
2022-08-22T05:38:34.760Z,15.75
2022-08-22T05:41:08.778Z,14.07
2022-08-22T05:43:43.618Z,12.68
2022-08-22T05:46:44.018Z,13.48
2022-08-22T05:49:26.296Z,15.50
2022-08-22T05:52:09.359Z,14.63
2022-08-22T05:54:43.835Z,12.95
2022-08-22T05:59:48.746Z,12.05
2022-08-22T06:02:22.048Z,11.05
2022-08-22T06:04:51.247Z,10.40
2022-08-22T06:07:41.577Z,11.88
2022-08-22T06:10:22.442Z,10.27
2022-08-22T06:13:13.837Z,16.23
2022-08-22T06:16:25.210Z,14.57
2022-08-22T06:18:52.671Z,17.88
2022-08-22T06:21:39.339Z,16.52
2022-08-22T06:24:08.692Z,13.77
2022-08-22T06:26:38.719Z,16.10
2022-08-22T06:29:07.202Z,16.73
2022-08-22T06:31:37.523Z,15.00
2022-08-22T06:34:25.208Z,14.48
2022-08-22T06:36:52.543Z,15.85
2022-08-22T06:39:34.052Z,15.98
2022-08-22T06:42:04.762Z,16.65
2022-08-22T06:44:35.427Z,21.90
2022-08-22T06:47:05.669Z,15.55
2022-08-22T06:49:33.221Z,18.77
2022-08-22T06:52:04.336Z,15.73
2022-08-22T06:54:34.552Z,17.00
2022-08-22T06:57:02.059Z,22.60
2022-08-22T06:59:30.178Z,15.73
2022-08-22T07:02:18.850Z,17.65
2022-08-22T07:04:50.624Z,18.02
2022-08-22T07:07:18.917Z,14.60
2022-08-22T07:09:50.460Z,20.30
2022-08-22T07:12:19.543Z,15.80
2022-08-22T07:14:51.199Z,15.48
2022-08-22T07:17:29.844Z,17.63
2022-08-22T07:20:23.978Z,11.30
2022-08-22T07:22:59.793Z,13.43
2022-08-22T07:25:27.263Z,14.35
2022-08-22T07:28:07.512Z,12.70
2022-08-22T07:30:55.858Z,14.43
2022-08-22T07:33:46.481Z,12.50
2022-08-22T07:36:31.444Z,13.90
2022-08-22T07:39:24.351Z,14.73
2022-08-22T07:42:19.233Z,14.70
2022-08-22T07:44:53.081Z,11.90
2022-08-22T07:47:26.544Z,8.77
2022-08-22T07:50:03.769Z,9.63
2022-08-22T07:52:38.365Z,10.20
2022-08-22T07:55:23.142Z,8.82
2022-08-22T08:00:22.453Z,8.90
2022-08-22T08:02:52.250Z,14.75
2022-08-22T08:05:21.519Z,10.00
2022-08-22T08:07:48.878Z,13.00
2022-08-22T08:10:19.360Z,12.57
2022-08-22T08:12:57.959Z,12.07
2022-08-22T08:15:30.115Z,9.32
2022-08-22T08:18:05.283Z,11.82
2022-08-22T08:20:34.448Z,9.50
2022-08-22T08:23:01.838Z,11.07
2022-08-22T08:25:30.476Z,10.18
2022-08-22T08:28:16.589Z,14.70
2022-08-22T08:30:59.489Z,8.45
2022-08-22T08:33:28.222Z,8.55
2022-08-22T08:36:11.249Z,8.93
2022-08-22T08:38:47.017Z,8.25
2022-08-22T08:41:32.920Z,11.35
2022-08-22T08:44:03.261Z,8.52
2022-08-22T08:46:42.542Z,9.80
2022-08-22T08:49:33.642Z,7.75
2022-08-22T08:52:19.910Z,5.57
2022-08-22T08:55:00.272Z,10.05
2022-08-22T08:57:32.148Z,6.60
2022-08-22T09:00:11.025Z,10.65
2022-08-22T09:02:47.742Z,9.95
2022-08-22T09:05:38.928Z,9.60
2022-08-22T09:08:15.065Z,6.75
2022-08-22T09:11:25.251Z,6.00
2022-08-22T09:14:12.431Z,5.68
2022-08-22T09:16:58.504Z,6.65
2022-08-22T09:19:40.811Z,4.68
2022-08-22T09:22:17.622Z,11.18
2022-08-22T09:25:06.008Z,6.38
2022-08-22T09:27:52.392Z,7.75
2022-08-22T09:30:28.530Z,6.40
2022-08-22T09:33:01.054Z,6.65
2022-08-22T09:35:47.389Z,9.30
2022-08-22T09:38:58.734Z,8.90
2022-08-22T09:41:51.646Z,6.03
2022-08-22T09:44:31.444Z,5.60
2022-08-22T09:47:17.794Z,5.28
2022-08-22T09:50:08.511Z,8.63
2022-08-22T09:53:01.830Z,7.20
2022-08-22T09:55:52.055Z,5.32
2022-08-22T09:58:57.789Z,3.95
2022-08-22T10:01:40.295Z,5.00
2022-08-22T10:04:38.874Z,10.30
2022-08-22T10:07:21.778Z,6.57
2022-08-22T10:10:01.406Z,6.30
2022-08-22T10:12:36.518Z,9.15
2022-08-22T10:15:27.168Z,6.55
2022-08-22T10:18:10.457Z,6.68
2022-08-22T10:21:00.483Z,4.97
2022-08-22T10:23:33.947Z,5.68
2022-08-22T10:26:08.256Z,3.72
2022-08-22T10:31:41.164Z,6.32
2022-08-22T10:34:29.013Z,6.38
2022-08-22T10:37:25.337Z,4.22
2022-08-22T10:39:58.740Z,6.25
2022-08-22T10:42:28.265Z,7.00
2022-08-22T10:45:03.121Z,8.85
2022-08-22T10:47:39.956Z,8.05
2022-08-22T10:50:12.301Z,8.02
2022-08-22T10:53:16.249Z,8.02
2022-08-22T10:55:43.602Z,7.47
2022-08-22T10:58:34.508Z,7.80
2022-08-22T11:01:37.213Z,4.90
2022-08-22T11:04:05.486Z,7.40
2022-08-22T11:06:44.798Z,8.05
2022-08-22T11:09:37.738Z,7.07
2022-08-22T11:12:13.215Z,5.53
2022-08-22T11:14:55.028Z,5.85
2022-08-22T11:17:59.475Z,4.57
2022-08-22T11:20:55.175Z,3.85
2022-08-22T11:23:37.620Z,10.88
2022-08-22T11:26:14.447Z,8.27
2022-08-22T11:29:12.316Z,7.00
2022-08-22T11:31:54.287Z,9.00
2022-08-22T11:34:45.892Z,8.02
2022-08-22T11:37:17.555Z,5.57
2022-08-22T11:39:57.955Z,4.72
2022-08-22T11:42:32.127Z,7.03
2022-08-22T11:45:00.437Z,6.45
2022-08-22T11:47:32.564Z,4.57
2022-08-22T11:50:16.439Z,4.20
2022-08-22T11:53:04.618Z,5.47
2022-08-22T11:56:01.002Z,3.05
2022-08-22T11:58:49.951Z,4.70
2022-08-22T12:03:47.105Z,2.97
2022-08-22T12:06:32.288Z,5.32
2022-08-22T12:09:20.673Z,4.88
2022-08-22T12:12:15.155Z,5.90
2022-08-22T12:14:56.206Z,4.95
2022-08-22T12:17:50.823Z,4.88
2022-08-22T12:20:45.593Z,3.13
2022-08-22T12:23:48.574Z,3.10
2022-08-22T12:26:22.083Z,7.20
2022-08-22T12:29:03.564Z,3.53
2022-08-22T12:31:37.657Z,2.85
2022-08-22T12:37:19.166Z,3.72
2022-08-22T12:40:08.950Z,2.17
2022-08-22T12:42:55.431Z,3.28
2022-08-22T12:45:42.434Z,3.10
2022-08-22T12:48:40.216Z,2.92
2022-08-22T12:51:29.388Z,2.95
2022-08-22T12:54:18.079Z,2.25
2022-08-22T12:57:32.436Z,5.20
2022-08-22T13:00:16.719Z,5.22
2022-08-22T13:02:54.061Z,8.02
2022-08-22T13:05:23.830Z,2.70
2022-08-22T13:08:05.499Z,4.40
2022-08-22T13:10:45.175Z,3.20
2022-08-22T13:13:37.224Z,4.50
2022-08-22T13:16:11.732Z,2.13
2022-08-22T13:19:07.579Z,2.83
2022-08-22T13:21:50.719Z,5.55
2022-08-22T13:24:38.691Z,4.85
2022-08-22T13:27:10.987Z,4.03
2022-08-22T13:29:59.944Z,5.32
2022-08-22T13:32:45.955Z,5.55
2022-08-22T13:35:38.343Z,5.15
2022-08-22T13:38:13.202Z,3.85
2022-08-22T13:40:44.727Z,6.80
2022-08-22T13:43:17.961Z,6.60
2022-08-22T13:45:56.761Z,3.30
2022-08-22T13:48:28.604Z,6.22
2022-08-22T13:50:58.830Z,3.97
2022-08-22T13:53:49.390Z,3.97
2022-08-22T13:56:28.715Z,6.03
2022-08-22T13:58:58.751Z,5.63
2022-08-22T14:01:47.329Z,4.68
2022-08-22T14:04:35.904Z,4.85
2022-08-22T14:07:04.520Z,5.05
2022-08-22T14:09:54.495Z,4.22
2022-08-22T14:12:33.504Z,4.13
2022-08-22T14:15:23.436Z,8.48
2022-08-22T14:17:52.308Z,4.25
2022-08-22T14:20:32.449Z,5.30
2022-08-22T14:23:11.558Z,3.60
2022-08-22T14:25:40.060Z,3.90
2022-08-22T14:28:20.274Z,4.88
2022-08-22T14:31:00.726Z,3.35
2022-08-22T14:33:39.843Z,5.13
2022-08-22T14:36:14.346Z,7.20
2022-08-22T14:38:51.731Z,5.22
2022-08-22T14:41:56.983Z,3.83
2022-08-22T14:44:50.254Z,4.95
2022-08-22T14:47:55.644Z,4.25
2022-08-22T14:50:40.398Z,9.48
2022-08-22T14:53:19.870Z,9.68
2022-08-22T14:56:10.965Z,5.43
2022-08-22T14:58:50.395Z,4.30
2022-08-22T15:01:23.698Z,3.47
2022-08-22T15:04:06.348Z,5.63
2022-08-22T15:07:06.247Z,2.65
2022-08-22T15:09:43.505Z,5.47
2022-08-22T15:12:30.729Z,5.82
2022-08-22T15:15:03.810Z,6.32
2022-08-22T15:17:45.619Z,3.90
2022-08-22T15:20:36.592Z,4.82
2022-08-22T15:23:20.880Z,4.75
2022-08-22T15:26:04.924Z,4.07
2022-08-22T15:28:52.670Z,6.28
2022-08-22T15:31:20.821Z,4.35
2022-08-22T15:33:48.320Z,4.82
2022-08-22T15:36:25.714Z,6.78
2022-08-22T15:38:55.326Z,9.68
2022-08-22T15:41:22.910Z,2.80
2022-08-22T15:44:00.636Z,4.35
2022-08-22T15:46:39.430Z,4.47
2022-08-22T15:49:48.072Z,5.15
2022-08-22T15:52:24.465Z,6.00
2022-08-22T15:54:57.039Z,4.28
2022-08-22T15:57:34.937Z,4.78
2022-08-22T16:00:12.101Z,7.97
2022-08-22T16:03:14.262Z,7.10
2022-08-22T16:05:43.230Z,4.00
2022-08-22T16:08:14.512Z,6.20
2022-08-22T16:11:03.104Z,4.45
2022-08-22T16:13:30.470Z,4.13
2022-08-22T16:16:03.920Z,7.97
2022-08-22T16:18:34.342Z,2.40
2022-08-22T16:21:04.951Z,6.20
2022-08-22T16:23:53.910Z,5.95
2022-08-22T16:26:27.523Z,3.75
2022-08-22T16:29:06.814Z,8.45
2022-08-22T16:31:42.985Z,4.38
2022-08-22T16:34:16.557Z,4.35
2022-08-22T16:37:11.458Z,4.53
2022-08-22T16:39:57.333Z,3.65
2022-08-22T16:42:24.771Z,3.42
2022-08-22T16:45:05.443Z,4.22
2022-08-22T16:47:33.265Z,6.10
2022-08-22T16:50:23.964Z,9.93
2022-08-22T16:53:04.949Z,2.88
2022-08-22T16:55:35.771Z,2.70
2022-08-22T16:58:12.026Z,3.75
2022-08-22T17:01:16.994Z,1.98
2022-08-22T17:04:14.015Z,3.05
2022-08-22T17:06:44.219Z,4.55
2022-08-22T17:09:41.876Z,3.95
2022-08-22T17:12:33.955Z,7.55
2022-08-22T17:15:07.271Z,3.47
2022-08-22T17:18:10.802Z,3.53
2022-08-22T17:20:47.390Z,2.75
2022-08-22T17:23:34.767Z,2.95
2022-08-22T17:26:14.835Z,3.45
2022-08-22T17:29:04.532Z,4.88
2022-08-22T17:31:55.814Z,2.95
2022-08-22T17:34:59.646Z,5.03
2022-08-22T17:37:36.254Z,3.80
2022-08-22T17:40:47.265Z,3.10
2022-08-22T17:43:23.544Z,2.47
2022-08-22T17:46:02.816Z,3.30
2022-08-22T17:49:09.387Z,10.35
2022-08-22T17:51:47.648Z,4.28
2022-08-22T17:54:14.988Z,5.85
2022-08-22T17:57:06.018Z,4.00
2022-08-22T17:59:39.663Z,4.70
2022-08-22T18:02:23.351Z,3.17
2022-08-22T18:05:19.551Z,2.30
2022-08-22T18:08:02.056Z,2.90
2022-08-22T18:10:50.237Z,6.75
2022-08-22T18:13:28.686Z,4.38
2022-08-22T18:16:01.710Z,4.38
2022-08-22T18:18:33.794Z,2.97
2022-08-22T18:21:02.891Z,4.35
2022-08-22T18:23:39.317Z,3.70
2022-08-22T18:26:24.343Z,3.50
2022-08-22T18:29:10.581Z,4.03
2022-08-22T18:31:45.743Z,7.28
2022-08-22T18:34:21.627Z,5.00
2022-08-22T18:36:55.283Z,3.67
2022-08-22T18:39:42.642Z,4.25
2022-08-22T18:42:18.425Z,4.18
2022-08-22T18:44:45.772Z,4.20
2022-08-22T18:47:19.566Z,4.68
2022-08-22T18:49:48.486Z,4.70
2022-08-22T18:52:19.065Z,4.20
2022-08-22T18:55:23.329Z,7.70
2022-08-22T18:58:12.674Z,5.07
2022-08-22T19:01:31.193Z,4.55
2022-08-22T19:04:33.022Z,5.50
2022-08-22T19:07:13.546Z,5.65
2022-08-22T19:09:53.315Z,4.25
2022-08-22T19:12:51.332Z,4.05
2022-08-22T19:15:31.448Z,4.47
2022-08-22T19:18:08.625Z,4.22
2022-08-22T19:20:56.298Z,4.47
2022-08-22T19:23:32.766Z,3.65
2022-08-22T19:26:29.676Z,4.40
2022-08-22T19:29:07.698Z,3.63
2022-08-22T19:31:41.203Z,4.45
2022-08-22T19:34:29.553Z,3.55
2022-08-22T19:37:30.729Z,2.65
2022-08-22T19:40:01.269Z,2.72
2022-08-22T19:42:34.219Z,3.55
2022-08-22T19:45:17.656Z,3.15
2022-08-22T19:47:53.913Z,4.55
2022-08-22T19:50:21.331Z,5.38
2022-08-22T19:53:10.202Z,4.22
2022-08-22T19:55:37.512Z,5.07
2022-08-22T19:58:33.066Z,3.97
2022-08-22T20:01:25.627Z,6.88
2022-08-22T20:04:03.740Z,4.75
2022-08-22T20:06:43.907Z,3.47
2022-08-22T20:09:35.861Z,3.53
2022-08-22T20:12:24.953Z,5.90
2022-08-22T20:14:52.275Z,4.95
2022-08-22T20:17:25.779Z,5.82
2022-08-22T20:20:19.702Z,4.33
2022-08-22T20:23:14.121Z,3.92
2022-08-22T20:25:44.156Z,4.40
2022-08-22T20:28:48.823Z,5.75
2022-08-22T20:31:24.749Z,2.72
2022-08-22T20:33:55.707Z,3.25
2022-08-22T20:36:28.325Z,6.95
2022-08-22T20:39:24.625Z,6.22
2022-08-22T20:41:56.236Z,3.45
2022-08-22T20:44:29.498Z,4.10
2022-08-22T20:47:11.156Z,5.22
2022-08-22T20:49:49.159Z,3.97
2022-08-22T20:52:36.327Z,2.85
2022-08-22T20:55:08.290Z,7.85
2022-08-22T20:57:36.313Z,5.10
2022-08-22T21:00:11.440Z,4.53
2022-08-22T21:02:48.040Z,3.88
2022-08-22T21:05:17.339Z,3.75
2022-08-22T21:07:46.284Z,5.55
2022-08-22T21:10:44.112Z,5.47
2022-08-22T21:13:26.588Z,3.22
2022-08-22T21:15:59.202Z,8.52
2022-08-22T21:18:39.535Z,3.53
2022-08-22T21:21:29.400Z,4.45
2022-08-22T21:24:01.843Z,3.38
2022-08-22T21:26:36.575Z,5.85
2022-08-22T21:29:13.203Z,4.82
2022-08-22T21:31:59.411Z,3.88
2022-08-22T21:34:42.648Z,4.82
2022-08-22T21:37:16.995Z,4.22
2022-08-22T21:39:59.807Z,3.70
2022-08-22T21:42:39.153Z,6.35
2022-08-22T21:45:33.931Z,3.17
2022-08-22T21:48:01.559Z,5.28
2022-08-22T21:50:41.332Z,3.80
2022-08-22T21:53:16.638Z,3.50
2022-08-22T21:55:44.510Z,6.35
2022-08-22T21:58:32.593Z,6.00
2022-08-22T22:01:03.978Z,4.35
2022-08-22T22:03:36.529Z,4.63
2022-08-22T22:06:05.610Z,4.57
2022-08-22T22:08:33.154Z,4.05
2022-08-22T22:11:02.784Z,7.25
2022-08-22T22:13:33.429Z,4.95
2022-08-22T22:16:00.834Z,4.70
2022-08-22T22:18:30.982Z,4.50
2022-08-22T22:20:58.467Z,7.45
2022-08-22T22:23:26.324Z,6.38
2022-08-22T22:25:54.675Z,4.65
2022-08-22T22:28:24.926Z,4.38
2022-08-22T22:30:53.359Z,5.70
2022-08-22T22:33:22.313Z,8.20
2022-08-22T22:35:49.949Z,4.47
2022-08-22T22:38:20.635Z,5.35
2022-08-22T22:40:51.618Z,5.28
2022-08-22T22:43:19.539Z,6.50
2022-08-22T22:45:46.893Z,8.40
2022-08-22T22:48:17.527Z,5.97
2022-08-22T22:50:51.815Z,5.70
2022-08-22T22:53:21.247Z,5.15
2022-08-22T22:56:00.214Z,7.68
2022-08-22T22:58:28.918Z,5.65
2022-08-22T23:00:57.687Z,5.80
2022-08-22T23:03:26.804Z,4.57
2022-08-22T23:05:54.181Z,5.15
2022-08-22T23:08:21.587Z,4.57
2022-08-22T23:10:48.921Z,4.72
2022-08-22T23:13:16.292Z,5.75
2022-08-22T23:15:43.642Z,6.97
2022-08-22T23:18:10.968Z,5.70
2022-08-22T23:20:38.328Z,4.80
2022-08-22T23:23:05.918Z,6.30
2022-08-22T23:25:33.312Z,4.30
2022-08-22T23:28:00.827Z,5.93
2022-08-22T23:30:28.396Z,5.75
2022-08-22T23:32:56.131Z,5.30
2022-08-22T23:35:23.548Z,6.10
2022-08-22T23:37:50.940Z,7.20
2022-08-22T23:40:18.410Z,6.63
2022-08-22T23:42:45.941Z,7.70
2022-08-22T23:45:13.296Z,9.38
2022-08-22T23:47:40.779Z,5.05
2022-08-22T23:50:08.486Z,5.07
2022-08-22T23:52:35.843Z,5.80
2022-08-22T23:55:03.279Z,5.80
2022-08-22T23:57:30.645Z,6.97
2022-08-22T23:59:58.741Z,6.40
